x

Portland 12 Nm Southeast Of Portland,me (44007) Wave Buoy

11:50 - Mon 22nd May 2017 All times are EDT. -4 hours from GMT.

  • Sig Wave height 2.3ft
  • Swell Direction
  • Peak Period 5s
  • Average Period 4s
  • Wind
    11mph, 13mph gusts
  • Sea Temp 50°f
  • Air Temp 49°f
  • Sea Pressure 1015.7mb
  • Portland 12 Nm Southeast Of Portland,me
  • Portland 12 Nm Southeast Of Portland,me

More Historic Weather Station data

Upgrade to MSW Pro to gain access to the past 30 days of data for over 8000 Wavebouys and Weather Stations around the globe.

Join Pro

Comparision Forecast

View Surf forecast
   
lun. 05/22 11:50 2.5ft 5s 4s 11 13 mph 1015.7mb 50f 49f
10:50 2.5ft 5s 4s 13 18 mph 1016.1mb 51f 49f
9:50 2.5ft 5s 4s 16 18 mph 1016.9mb 51f 49f
8:50 2.5ft 4s 4s 16 18 mph 1017.1mb 50f 49f
7:50 2.5ft 4s 4s 16 18 mph 1017.4mb 49f 48f
6:50 3ft 5s 4s 16 20 mph 1018.2mb 50f 48f
5:50 3ft 4s 4s 18 22 mph 1018.4mb 50f 49f
4:50 2.5ft 4s 4s 16 18 mph 1019mb 50f 50f
3:50 2.5ft 3s 3s 16 20 mph 1019.6mb 50f 51f
2:50 1.3ft 3s 3s 18 22 mph 1019.9mb 50f 52f
1:50 1ft 8s 4s 13 16 mph 1021.1mb 50f 52f
12:50 1ft 4s 4s 9 9 mph 1021.6mb 50f 51f
11:50 1ft 4s 4s 7 7 mph 1022.1mb 50f 51f
10:50 1ft 4s 4s 7 7 mph 1022.4mb 50f 51f
8:50 1ft 4s 4s 4 4 mph 1022.9mb 50f 50f
7:50 1ft 3s 4s 7 9 mph 1023.3mb 50f 50f
6:50 1ft 4s 4s 4 7 mph 1022.9mb 50f 51f
5:50 1.3ft 4s 3s 9 9 mph 1022.5mb 50f 51f
4:50 1.3ft 3s 4s 11 13 mph 1022.7mb 50f 52f
3:50 1.3ft 4s 4s 7 7 mph 1022.4mb 49f 51f
2:50 1.3ft 3s 4s 7 7 mph 1022.4mb 50f 51f
1:50 1.3ft 4s 4s 9 11 mph 1023.1mb 50f 52f
12:50 1ft 4s 3s 9 11 mph 1023.3mb 50f 52f
dim. 05/21 11:50 1.3ft 3s 3s 11 13 mph 1023.5mb 50f 52f
10:50 1.3ft 3s 3s 11 13 mph 1023.8mb 50f 53f
9:50 1.3ft 4s 3s 13 16 mph 1024.6mb 50f 53f
8:50 1.3ft 3s 3s 9 11 mph 1025mb 50f 53f
7:50 1.3ft 3s 3s 11 13 mph 1025mb 51f 53f
6:50 1.6ft 3s 3s 13 16 mph 1025mb 51f 53f
5:50 1.3ft 3s 3s 13 16 mph 1024.9mb 52f 53f
4:50 1.3ft 2s 3s 13 16 mph 1025.2mb 52f 53f
3:50 1ft 2s 3s 13 16 mph 1025.7mb 53f 54f
2:50 0.7ft  -  5s 13 16 mph 1026.8mb 53f 54f
1:50 0.7ft  -  6s 11 11 mph 1027.4mb 53f 54f
12:50 0.7ft  -  6s 11 11 mph 1028.1mb 54f 55f
11:50 0.7ft  -  6s 7 7 mph 1029mb 53f 55f
10:50 0.7ft  -  6s  -  2 mph 1029.5mb 52f 55f
9:50 0.7ft  -   -  2 4 mph 1029.5mb 51f 52f
8:50 0.7ft  -  5s 4 7 mph 1029.4mb 51f 51f
7:50 1ft 7s 5s 7 9 mph 1029.6mb 50f 49f
6:50 1ft 6s 5s 9 9 mph 1029.3mb 49f 49f
5:50 1ft 7s 5s 9 9 mph 1029mb 49f 50f
4:50 1ft 7s 5s 7 7 mph 1028.6mb 49f 50f
3:50 1ft 7s 5s 7 9 mph 1028mb 49f 50f
2:50 1ft 7s  -  9 9 mph 1028mb 50f 51f
1:50 1ft 8s 5s 4 7 mph 1027.9mb 50f 51f
12:50 1ft 8s 5s 4 4 mph 1027.6mb 50f 51f
sam. 05/20 11:50 1ft 7s  -  4 7 mph 1027.2mb 50f 51f
10:50 1ft 8s 4s 4 7 mph 1026.9mb 50f 51f
9:50 1ft 7s 4s 7 9 mph 1026.3mb 50f 52f
8:50 1.3ft 7s 3s 9 11 mph 1025.7mb 51f 53f
7:50 1.3ft 8s 3s 13 16 mph 1024.7mb 52f 52f
6:50 1.3ft 3s 3s 13 16 mph 1024.3mb 52f 53f
5:50 1.6ft 3s 3s 11 13 mph 1024.2mb 51f 53f
4:50 1.3ft 7s 3s 13 16 mph 1024.5mb 52f 52f
3:50 1ft 7s 4s 13 16 mph 1024.6mb 53f 53f
2:50 1ft 8s 6s 11 13 mph 1024.9mb 54f 53f
1:50 1ft 8s 6s 7 7 mph 1025mb 53f 53f
12:50 1ft 8s 5s 7 7 mph 1025.2mb 53f 53f
11:50 1.3ft 8s 5s 4 7 mph 1025.4mb 52f 52f
10:50 1.3ft 7s 4s 7 7 mph 1025.5mb 51f 52f
9:50 1.6ft 3s 4s 9 9 mph 1025.8mb 50f 51f
8:50 1.6ft 7s 3s 16 18 mph 1025.2mb 50f 51f
7:50 1.3ft 7s 4s 16 22 mph 1024.3mb 50f 51f
6:50 1.3ft 7s 5s 11 13 mph 1023.8mb 50f 51f
5:50 1ft 7s 5s 4 7 mph 1023mb 50f 51f
4:50 1ft 6s 5s 7 7 mph 1021.7mb 51f 51f
3:50 1.3ft 6s 5s 9 11 mph 1020.8mb 48f 51f
2:50 1.3ft 7s 4s 9 9 mph 1020.1mb 48f 51f
1:50 1.6ft 3s 3s 11 13 mph 1020mb 48f 52f
12:50 1.6ft 3s 3s 11 13 mph 1019.2mb 48f 52f
ven. 05/19 11:50 2ft 7s 3s 13 18 mph 1018.4mb 48f 53f
10:50 2ft 3s 3s 13 16 mph 1017.4mb 48f 53f
9:50 2.5ft 3s 4s 18 22 mph 1016.4mb 48f 54f
8:50 2.5ft 7s 4s 20 22 mph 1014.4mb 49f 55f
7:50 2.5ft 7s 4s 22 27 mph 1013mb 50f 57f
6:50 2.5ft 6s 4s 13 18 mph 1011.1mb 50f 60f
5:50 2.5ft 6s 4s 22 27 mph 1009.6mb 50f 65f
4:50 2.5ft 6s 4s 18 22 mph 1009.2mb 51f 64f
3:50 2.5ft 7s 4s 16 18 mph 1008.5mb 51f 62f
2:50 2.5ft 6s 4s 16 20 mph 1007.5mb 51f 66f
1:50 2.5ft 5s 4s 11 16 mph 1007.1mb 51f 67f
12:50 2.5ft 5s 4s 16 18 mph 1006.5mb 51f 67f
11:50 2.5ft 6s 4s 20 27 mph 1006.3mb 50f 68f
10:50 2.5ft 5s 4s 18 20 mph 1006.3mb 50f 65f
9:50 2.5ft 5s  -  18 22 mph 1006.3mb 50f 65f
8:50 2ft 6s  -  13 16 mph 1006.5mb 50f 58f
7:50 2ft 6s 4s 9 9 mph 1006.7mb 50f 56f
6:50 2.5ft 5s 5s 13 16 mph 1006.3mb 50f 56f
5:50 2ft 5s 4s 11 13 mph 1005.4mb 50f 57f